createdAt,value
2018-07-23T00:02:20.573Z,101005.59
2018-07-23T00:04:49.297Z,101005.67
2018-07-23T00:07:18.342Z,101006.37
2018-07-23T00:09:47.388Z,101005.16
2018-07-23T00:12:16.084Z,101010.28
2018-07-23T00:14:45.301Z,101002.66
2018-07-23T00:17:14.022Z,101003.39
2018-07-23T00:19:43.035Z,101003.20
2018-07-23T00:22:12.914Z,101006.69
2018-07-23T00:24:41.578Z,101002.91
2018-07-23T00:27:11.609Z,100999.95
2018-07-23T00:29:40.477Z,101002.72
2018-07-23T00:32:09.475Z,101000.77
2018-07-23T00:34:38.510Z,100996.81
2018-07-23T00:37:07.459Z,101000.89
2018-07-23T00:39:36.359Z,101001.48
2018-07-23T00:42:05.008Z,100999.05
2018-07-23T00:44:34.439Z,101003.95
2018-07-23T00:47:03.179Z,101004.20
2018-07-23T00:49:32.857Z,101000.72
2018-07-23T00:52:01.550Z,101005.89
2018-07-23T00:54:30.145Z,101004.27
2018-07-23T00:56:58.927Z,101009.02
2018-07-23T00:59:29.004Z,101009.97
2018-07-23T01:01:57.985Z,101007.17
2018-07-23T01:04:27.218Z,101008.91
2018-07-23T01:06:55.839Z,101005.34
2018-07-23T01:09:24.504Z,101012.98
2018-07-23T01:11:53.413Z,101016.14
2018-07-23T01:14:22.389Z,101010.39
2018-07-23T01:16:51.334Z,101014.94
2018-07-23T01:19:19.982Z,101018.77
2018-07-23T01:21:49.047Z,101021.43
2018-07-23T01:24:17.665Z,101024.14
2018-07-23T01:26:46.938Z,101025.75
2018-07-23T01:29:16.136Z,101024.40
2018-07-23T01:31:45.330Z,101016.14
2018-07-23T01:34:14.150Z,101016.59
2018-07-23T01:36:43.425Z,101019.30
2018-07-23T01:39:12.341Z,101010.37
2018-07-23T01:41:40.986Z,101018.92
2018-07-23T01:44:09.616Z,101021.19
2018-07-23T01:46:38.247Z,101020.16
2018-07-23T01:49:07.074Z,101018.03
2018-07-23T01:51:35.723Z,101029.39
2018-07-23T01:54:04.957Z,101024.65
2018-07-23T01:56:35.021Z,101024.88
2018-07-23T01:59:03.708Z,101026.61
2018-07-23T02:01:32.367Z,101024.27
2018-07-23T02:04:01.023Z,101026.95
2018-07-23T02:06:30.453Z,101027.19
2018-07-23T02:08:59.203Z,101027.55
2018-07-23T02:11:28.567Z,101024.33
2018-07-23T02:13:58.962Z,101025.75
2018-07-23T02:16:27.655Z,101027.97
2018-07-23T02:18:56.267Z,101038.05
2018-07-23T02:21:25.230Z,101034.61
2018-07-23T02:23:54.171Z,101031.92
2018-07-23T02:26:22.828Z,101033.25
2018-07-23T02:28:51.525Z,101037.23
2018-07-23T02:31:20.819Z,101043.98
2018-07-23T02:33:50.412Z,101034.75
2018-07-23T02:36:19.000Z,101038.59
2018-07-23T02:38:47.681Z,101038.29
2018-07-23T02:41:16.317Z,101040.77
2018-07-23T02:43:45.309Z,101042.12
2018-07-23T02:46:13.965Z,101041.59
2018-07-23T02:48:42.964Z,101045.60
2018-07-23T02:51:11.648Z,101046.40
2018-07-23T02:53:40.308Z,101047.16
2018-07-23T02:56:09.402Z,101048.81
2018-07-23T02:58:38.929Z,101048.52
2018-07-23T03:01:07.622Z,101043.86
2018-07-23T03:03:36.789Z,101039.84
2018-07-23T03:06:05.510Z,101050.47
2018-07-23T03:08:34.600Z,101048.31
2018-07-23T03:11:03.386Z,101045.05
2018-07-23T03:13:32.682Z,101043.16
2018-07-23T03:16:01.479Z,101051.00
2018-07-23T03:18:30.157Z,101050.17
2018-07-23T03:20:59.162Z,101058.31
2018-07-23T03:23:28.859Z,101060.73
2018-07-23T03:25:58.153Z,101059.38
2018-07-23T03:28:26.797Z,101052.59
2018-07-23T03:30:55.677Z,101050.54
2018-07-23T03:33:25.046Z,101058.75
2018-07-23T03:35:54.330Z,101062.22
2018-07-23T03:38:23.028Z,101058.88
2018-07-23T03:40:51.711Z,101061.95
2018-07-23T03:43:20.671Z,101060.53
2018-07-23T03:45:49.806Z,101062.48
2018-07-23T03:48:19.413Z,101062.98
2018-07-23T03:50:48.088Z,101068.63
2018-07-23T03:53:17.092Z,101063.80
2018-07-23T03:55:46.293Z,101067.56
2018-07-23T03:58:14.972Z,101067.56
2018-07-23T04:00:43.695Z,101070.98
2018-07-23T04:03:12.359Z,101073.30
2018-07-23T04:05:41.001Z,101070.39
2018-07-23T04:08:09.687Z,101069.03
2018-07-23T04:10:38.632Z,101069.86
2018-07-23T04:13:07.628Z,101064.44
2018-07-23T04:15:36.294Z,101068.66
2018-07-23T04:18:05.203Z,101061.13
2018-07-23T04:20:35.475Z,101072.88
2018-07-23T04:23:05.262Z,101078.59
2018-07-23T04:25:34.248Z,101073.63
2018-07-23T04:28:03.835Z,101083.42
2018-07-23T04:30:32.634Z,101087.65
2018-07-23T04:33:01.268Z,101085.89
2018-07-23T04:35:30.301Z,101085.33
2018-07-23T04:37:59.768Z,101095.08
2018-07-23T04:40:28.346Z,101095.38
2018-07-23T04:42:56.997Z,101098.09
2018-07-23T04:45:25.970Z,101101.94
2018-07-23T04:47:55.166Z,101101.69
2018-07-23T04:50:24.273Z,101105.34
2018-07-23T04:52:54.393Z,101112.53
2018-07-23T04:55:23.419Z,101108.99
2018-07-23T04:57:53.892Z,101111.17
2018-07-23T05:00:22.548Z,101109.17
2018-07-23T05:02:51.302Z,101108.98
2018-07-23T05:05:19.962Z,101111.77
2018-07-23T05:07:48.657Z,101111.24
2018-07-23T05:10:17.585Z,101109.23
2018-07-23T05:12:46.627Z,101104.29
2018-07-23T05:15:15.562Z,101108.53
2018-07-23T05:17:44.555Z,101107.87
2018-07-23T05:20:13.530Z,101106.62
2018-07-23T05:22:42.233Z,101104.57
2018-07-23T05:25:11.127Z,101109.11
2018-07-23T05:27:39.822Z,101109.23
2018-07-23T05:30:08.605Z,101103.91
2018-07-23T05:32:37.586Z,101109.42
2018-07-23T05:35:06.442Z,101112.20
2018-07-23T05:37:35.104Z,101111.77
2018-07-23T05:40:03.897Z,101109.95
2018-07-23T05:42:32.570Z,101106.50
2018-07-23T05:45:01.279Z,101111.23
2018-07-23T05:47:30.030Z,101112.08
2018-07-23T05:49:59.065Z,101115.39
2018-07-23T05:52:27.734Z,101117.37
2018-07-23T05:54:56.352Z,101122.39
2018-07-23T05:57:25.294Z,101113.80
2018-07-23T05:59:53.982Z,101116.84
2018-07-23T06:02:22.737Z,101123.39
2018-07-23T06:04:51.462Z,101123.75
2018-07-23T06:07:20.171Z,101124.05
2018-07-23T06:09:48.932Z,101125.67
2018-07-23T06:12:17.576Z,101126.55
2018-07-23T06:14:48.434Z,101128.50
2018-07-23T06:17:17.248Z,101130.72
2018-07-23T06:19:46.732Z,101127.28
2018-07-23T06:22:15.805Z,101131.13
2018-07-23T06:24:45.082Z,101135.23
2018-07-23T06:27:14.302Z,101129.80
2018-07-23T06:29:43.574Z,101140.63
2018-07-23T06:32:13.029Z,101140.12
2018-07-23T06:34:41.905Z,101140.75
2018-07-23T06:37:10.643Z,101136.05
2018-07-23T06:39:39.340Z,101131.13
2018-07-23T06:42:08.032Z,101137.67
2018-07-23T06:44:36.681Z,101136.48
2018-07-23T06:47:05.776Z,101135.30
2018-07-23T06:49:34.431Z,101129.32
2018-07-23T06:52:03.095Z,101131.55
2018-07-23T06:54:32.032Z,101130.26
2018-07-23T06:57:00.681Z,101129.27
2018-07-23T06:59:29.719Z,101134.16
2018-07-23T07:01:58.873Z,101138.49
2018-07-23T07:04:27.868Z,101135.48
2018-07-23T07:06:56.560Z,101134.58
2018-07-23T07:09:25.288Z,101134.50
2018-07-23T07:11:53.977Z,101126.70
2018-07-23T07:14:22.892Z,101138.87
2018-07-23T07:16:51.619Z,101138.73
2018-07-23T07:19:21.372Z,101135.25
2018-07-23T07:21:50.074Z,101137.24
2018-07-23T07:24:19.158Z,101132.35
2018-07-23T07:26:47.797Z,101138.40
2018-07-23T07:29:16.790Z,101138.98
2018-07-23T07:31:45.442Z,101144.75
2018-07-23T07:34:14.530Z,101142.83
2018-07-23T07:36:43.247Z,101151.15
2018-07-23T07:39:13.154Z,101148.23
2018-07-23T07:41:42.842Z,101146.79
2018-07-23T07:44:11.527Z,101142.28
2018-07-23T07:46:41.345Z,101148.39
2018-07-23T07:49:11.214Z,101147.91
2018-07-23T07:51:39.997Z,101148.52
2018-07-23T07:54:09.263Z,101152.02
2018-07-23T07:56:39.159Z,101147.84
2018-07-23T07:59:07.935Z,101144.38
2018-07-23T08:01:36.944Z,101148.80
2018-07-23T08:04:06.298Z,101143.98
2018-07-23T08:06:35.320Z,101143.48
2018-07-23T08:09:06.339Z,101144.85
2018-07-23T08:11:35.290Z,101149.37
2018-07-23T08:14:04.016Z,101146.69
2018-07-23T08:16:33.055Z,101150.55
2018-07-23T08:19:03.006Z,101154.34
2018-07-23T08:21:31.702Z,101148.79
2018-07-23T08:24:00.328Z,101150.77
2018-07-23T08:26:29.477Z,101153.20
2018-07-23T08:28:58.601Z,101155.15
2018-07-23T08:31:33.839Z,101154.59
2018-07-23T08:34:02.868Z,101152.91
2018-07-23T08:36:32.098Z,101159.45
2018-07-23T08:39:00.890Z,101164.89
2018-07-23T08:41:29.714Z,101167.09
2018-07-23T08:43:58.570Z,101168.84
2018-07-23T08:46:27.427Z,101168.59
2018-07-23T08:48:56.370Z,101174.97
2018-07-23T08:51:25.230Z,101177.13
2018-07-23T08:53:54.215Z,101182.17
2018-07-23T08:56:23.179Z,101176.46
2018-07-23T08:58:51.832Z,101177.03
2018-07-23T09:01:20.814Z,101180.97
2018-07-23T09:03:49.457Z,101179.77
2018-07-23T09:06:18.247Z,101172.69
2018-07-23T09:08:47.064Z,101177.77
2018-07-23T09:11:15.704Z,101173.75
2018-07-23T09:13:44.735Z,101168.67
2018-07-23T09:16:13.561Z,101185.33
2018-07-23T09:18:42.263Z,101178.48
2018-07-23T09:21:10.999Z,101177.01
2018-07-23T09:23:39.769Z,101178.94
2018-07-23T09:26:08.488Z,101172.92
2018-07-23T09:28:37.300Z,101165.92
2018-07-23T09:31:05.961Z,101171.77
2018-07-23T09:33:34.946Z,101172.27
2018-07-23T09:36:03.635Z,101163.29
2018-07-23T09:38:32.318Z,101164.93
2018-07-23T09:41:00.982Z,101170.77
2018-07-23T09:43:29.676Z,101170.25
2018-07-23T09:45:58.425Z,101170.94
2018-07-23T09:48:27.263Z,101169.00
2018-07-23T09:50:56.034Z,101168.62
2018-07-23T09:53:24.795Z,101165.45
2018-07-23T09:55:53.411Z,101175.69
2018-07-23T09:58:22.096Z,101170.98
2018-07-23T10:00:55.847Z,101166.91
2018-07-23T10:03:24.594Z,101168.33
2018-07-23T10:05:53.886Z,101157.94
2018-07-23T10:08:22.802Z,101158.63
2018-07-23T10:10:51.741Z,101160.81
2018-07-23T10:13:20.423Z,101165.59
2018-07-23T10:15:49.088Z,101161.19
2018-07-23T10:18:18.184Z,101160.84
2018-07-23T10:20:47.159Z,101162.13
2018-07-23T10:23:15.782Z,101154.72
2018-07-23T10:25:44.864Z,101159.34
2018-07-23T10:28:13.487Z,101159.31
2018-07-23T10:30:42.129Z,101160.48
2018-07-23T10:33:11.069Z,101150.41
2018-07-23T10:35:41.696Z,101154.48
2018-07-23T10:38:10.337Z,101164.39
2018-07-23T10:40:39.209Z,101151.91
2018-07-23T10:43:08.215Z,101156.06
2018-07-23T10:45:36.883Z,101151.66
2018-07-23T10:48:06.618Z,101150.22
2018-07-23T10:50:35.305Z,101150.98
2018-07-23T10:53:04.298Z,101140.98
2018-07-23T10:55:32.941Z,101143.75
2018-07-23T10:58:01.583Z,101142.84
2018-07-23T11:00:30.425Z,101145.11
2018-07-23T11:02:59.887Z,101149.30
2018-07-23T11:05:29.647Z,101139.35
2018-07-23T11:07:58.498Z,101134.46
2018-07-23T11:10:27.134Z,101144.89
2018-07-23T11:12:55.852Z,101134.41
2018-07-23T11:15:25.013Z,101136.73
2018-07-23T11:17:53.993Z,101134.73
2018-07-23T11:20:22.645Z,101125.95
2018-07-23T11:22:51.678Z,101132.27
2018-07-23T11:25:39.085Z,101136.17
2018-07-23T11:27:49.361Z,101135.63
2018-07-23T11:30:18.232Z,101139.63
2018-07-23T11:32:47.216Z,101128.96
2018-07-23T11:35:15.900Z,101124.84
2018-07-23T11:37:44.606Z,101123.93
2018-07-23T11:40:13.441Z,101122.38
2018-07-23T11:42:42.484Z,101125.95
2018-07-23T11:45:11.381Z,101115.37
2018-07-23T11:47:40.129Z,101127.52
2018-07-23T11:50:09.117Z,101126.51
2018-07-23T11:52:38.036Z,101131.78
2018-07-23T11:55:06.757Z,101129.51
2018-07-23T11:57:35.889Z,101121.96
2018-07-23T12:00:05.331Z,101124.16
2018-07-23T12:02:34.378Z,101127.76
2018-07-23T12:05:03.279Z,101130.66
2018-07-23T12:07:32.258Z,101118.13
2018-07-23T12:10:01.014Z,101118.62
2018-07-23T12:12:29.682Z,101123.61
2018-07-23T12:14:59.179Z,101119.28
2018-07-23T12:17:28.275Z,101120.63
2018-07-23T12:19:57.167Z,101121.60
2018-07-23T12:22:25.825Z,101114.87
2018-07-23T12:24:54.544Z,101118.00
2018-07-23T12:27:23.647Z,101117.04
2018-07-23T12:29:52.664Z,101121.77
2018-07-23T12:32:21.482Z,101115.67
2018-07-23T12:34:50.148Z,101115.73
2018-07-23T12:37:19.440Z,101116.70
2018-07-23T12:39:48.481Z,101111.75
2018-07-23T12:42:17.327Z,101104.95
2018-07-23T12:44:46.015Z,101112.49
2018-07-23T12:47:14.696Z,101114.02
2018-07-23T12:49:43.685Z,101114.12
2018-07-23T12:52:12.681Z,101117.84
2018-07-23T12:54:41.461Z,101111.56
2018-07-23T12:57:10.208Z,101126.52
2018-07-23T12:59:38.894Z,101118.20
2018-07-23T13:02:07.945Z,101124.45
2018-07-23T13:04:36.722Z,101123.94
2018-07-23T13:07:05.450Z,101113.10
2018-07-23T13:09:34.101Z,101123.31
2018-07-23T13:12:02.868Z,101124.29
2018-07-23T13:14:31.567Z,101121.04
2018-07-23T13:17:00.395Z,101114.85
2018-07-23T13:19:29.099Z,101122.08
2018-07-23T13:21:57.742Z,101114.56
2018-07-23T13:24:26.745Z,101123.50
2018-07-23T13:26:55.470Z,101119.80
2018-07-23T13:29:24.280Z,101123.00
2018-07-23T13:31:52.959Z,101110.80
2018-07-23T13:34:21.979Z,101114.16
2018-07-23T13:36:50.699Z,101110.44
2018-07-23T13:39:19.808Z,101111.95
2018-07-23T13:41:48.524Z,101107.17
2018-07-23T13:44:17.210Z,101102.82
2018-07-23T13:46:45.937Z,101100.20
2018-07-23T13:49:14.633Z,101108.16
2018-07-23T13:51:43.651Z,101111.56
2018-07-23T13:54:13.263Z,101111.87
2018-07-23T13:56:42.080Z,101102.47
2018-07-23T13:59:12.917Z,101102.19
2018-07-23T14:01:41.562Z,101092.10
2018-07-23T14:04:10.620Z,101100.27
2018-07-23T14:06:39.502Z,101098.87
2018-07-23T14:09:10.713Z,101102.05
2018-07-23T14:11:39.340Z,101095.20
2018-07-23T14:14:08.018Z,101103.21
2018-07-23T14:16:36.739Z,101103.38
2018-07-23T14:19:05.809Z,101096.08
2018-07-23T14:21:35.068Z,101092.91
2018-07-23T14:24:04.478Z,101101.33
2018-07-23T14:26:33.097Z,101100.84
2018-07-23T14:29:01.784Z,101101.73
2018-07-23T14:31:30.435Z,101093.45
2018-07-23T14:33:59.368Z,101097.77
2018-07-23T14:36:28.736Z,101098.66
2018-07-23T14:38:57.414Z,101094.41
2018-07-23T14:41:26.038Z,101093.23
2018-07-23T14:43:55.034Z,101089.01
2018-07-23T14:46:24.025Z,101088.86
2018-07-23T14:48:52.652Z,101083.03
2018-07-23T14:51:21.266Z,101079.02
2018-07-23T14:53:50.266Z,101082.98
2018-07-23T14:56:18.924Z,101076.66
2018-07-23T14:58:47.555Z,101076.20
2018-07-23T15:01:16.181Z,101080.59
2018-07-23T15:03:45.389Z,101074.75
2018-07-23T15:06:14.410Z,101080.89
2018-07-23T15:08:43.566Z,101080.47
2018-07-23T15:11:12.329Z,101078.90
2018-07-23T15:13:41.434Z,101078.21
2018-07-23T15:16:10.244Z,101071.86
2018-07-23T15:18:39.316Z,101068.98
2018-07-23T15:21:08.365Z,101077.73
2018-07-23T15:23:37.074Z,101075.88
2018-07-23T15:26:06.669Z,101066.86
2018-07-23T15:28:35.357Z,101074.85
2018-07-23T15:31:04.294Z,101067.27
2018-07-23T15:33:33.030Z,101062.02
2018-07-23T15:36:02.278Z,101063.47
2018-07-23T15:38:31.154Z,101069.36
2018-07-23T15:41:00.379Z,101068.33
2018-07-23T15:43:29.096Z,101067.05
2018-07-23T15:45:58.651Z,101059.87
2018-07-23T15:48:27.569Z,101064.97
2018-07-23T15:50:56.247Z,101059.59
2018-07-23T15:53:24.957Z,101063.42
2018-07-23T15:55:54.344Z,101057.37
2018-07-23T15:58:23.237Z,101056.68
2018-07-23T16:00:52.125Z,101057.16
2018-07-23T16:03:21.073Z,101065.38
2018-07-23T16:05:49.732Z,101057.73
2018-07-23T16:08:18.695Z,101055.86
2018-07-23T16:10:47.525Z,101050.03
2018-07-23T16:13:16.305Z,101060.05
2018-07-23T16:15:45.131Z,101047.91
2018-07-23T16:18:14.202Z,101050.40
2018-07-23T16:20:42.911Z,101053.68
2018-07-23T16:23:11.853Z,101053.77
2018-07-23T16:25:40.555Z,101052.44
2018-07-23T16:28:09.238Z,101058.46
2018-07-23T16:30:37.889Z,101048.58
2018-07-23T16:33:06.671Z,101061.53
2018-07-23T16:35:35.912Z,101067.07
2018-07-23T16:38:04.616Z,101058.66
2018-07-23T16:40:33.971Z,101059.17
2018-07-23T16:43:02.994Z,101061.94
2018-07-23T16:45:31.745Z,101057.56
2018-07-23T16:48:03.559Z,101058.92
2018-07-23T16:50:32.248Z,101060.31
2018-07-23T16:53:01.053Z,101058.53
2018-07-23T16:55:30.440Z,101054.77
2018-07-23T16:57:59.151Z,101059.37
2018-07-23T17:00:27.813Z,101055.64
2018-07-23T17:02:56.819Z,101059.52
2018-07-23T17:05:25.806Z,101064.80
2018-07-23T17:07:54.612Z,101061.53
2018-07-23T17:10:23.282Z,101055.80
2018-07-23T17:12:52.196Z,101066.55
2018-07-23T17:15:21.134Z,101067.41
2018-07-23T17:17:49.801Z,101067.98
2018-07-23T17:20:18.375Z,101065.25
2018-07-23T17:22:47.261Z,101068.30
2018-07-23T17:25:16.086Z,101069.33
2018-07-23T17:27:44.745Z,101069.54
2018-07-23T17:30:13.710Z,101066.96
2018-07-23T17:32:42.478Z,101068.14
2018-07-23T17:35:11.305Z,101075.05
2018-07-23T17:37:40.021Z,101068.51
2018-07-23T17:40:08.941Z,101072.95
2018-07-23T17:42:37.805Z,101071.06
2018-07-23T17:45:06.927Z,101070.52
2018-07-23T17:47:36.112Z,101071.95
2018-07-23T17:50:04.913Z,101071.67
2018-07-23T17:52:33.708Z,101074.13
2018-07-23T17:55:02.795Z,101073.30
2018-07-23T17:57:31.540Z,101076.05
2018-07-23T18:00:00.553Z,101075.23
2018-07-23T18:02:29.520Z,101074.94
2018-07-23T18:04:58.633Z,101080.71
2018-07-23T18:07:27.257Z,101076.61
2018-07-23T18:09:56.027Z,101077.16
2018-07-23T18:12:24.678Z,101084.28
2018-07-23T18:14:53.580Z,101077.98
2018-07-23T18:17:22.511Z,101081.55
2018-07-23T18:19:51.120Z,101082.91
2018-07-23T18:22:21.037Z,101092.22
2018-07-23T18:24:49.769Z,101089.20
2018-07-23T18:27:18.474Z,101095.53
2018-07-23T18:29:48.190Z,101099.61
2018-07-23T18:32:17.199Z,101095.27
2018-07-23T18:34:46.090Z,101099.89
2018-07-23T18:37:14.804Z,101103.72
2018-07-23T18:39:43.582Z,101092.77
2018-07-23T18:42:12.244Z,101103.20
2018-07-23T18:44:41.340Z,101101.56
2018-07-23T18:47:10.307Z,101102.92
2018-07-23T18:49:58.397Z,101103.75
2018-07-23T18:52:28.805Z,101104.84
2018-07-23T18:54:58.718Z,101104.30
2018-07-23T18:57:27.793Z,101111.43
2018-07-23T18:59:56.593Z,101113.06
2018-07-23T19:02:25.443Z,101117.17
2018-07-23T19:04:54.893Z,101125.64
2018-07-23T19:07:23.553Z,101127.58
2018-07-23T19:09:52.513Z,101122.64
2018-07-23T19:12:22.154Z,101133.32
2018-07-23T19:14:50.895Z,101127.58
2018-07-23T19:17:19.743Z,101138.23
2018-07-23T19:19:48.667Z,101138.52
2018-07-23T19:22:18.450Z,101142.33
2018-07-23T19:24:47.293Z,101146.13
2018-07-23T19:27:16.037Z,101142.58
2018-07-23T19:29:44.773Z,101148.30
2018-07-23T19:32:13.830Z,101155.16
2018-07-23T19:34:42.687Z,101156.75
2018-07-23T19:37:11.714Z,101161.38
2018-07-23T19:39:40.904Z,101156.69
2018-07-23T19:42:09.928Z,101157.15
2018-07-23T19:44:38.841Z,101160.41
2018-07-23T19:47:07.598Z,101164.77
2018-07-23T19:49:36.962Z,101163.91
2018-07-23T19:52:05.778Z,101166.62
2018-07-23T19:54:34.713Z,101169.04
2018-07-23T19:57:04.958Z,101170.13
2018-07-23T19:59:34.069Z,101167.35
2018-07-23T20:02:03.517Z,101170.86
2018-07-23T20:04:32.309Z,101175.73
2018-07-23T20:07:01.185Z,101173.27
2018-07-23T20:09:30.046Z,101174.61
2018-07-23T20:11:59.046Z,101178.36
2018-07-23T20:14:28.599Z,101178.08
2018-07-23T20:16:57.390Z,101177.23
2018-07-23T20:19:26.342Z,101175.55
2018-07-23T20:22:01.817Z,101170.34
2018-07-23T20:24:30.585Z,101170.61
2018-07-23T20:26:59.654Z,101172.48
2018-07-23T20:29:28.406Z,101177.05
2018-07-23T20:31:57.185Z,101173.41
2018-07-23T20:34:28.213Z,101168.45
2018-07-23T20:36:57.147Z,101167.59
2018-07-23T20:39:26.256Z,101171.91
2018-07-23T20:41:55.120Z,101167.23
2018-07-23T20:44:23.791Z,101176.71
2018-07-23T20:46:52.581Z,101175.89
2018-07-23T20:49:23.667Z,101171.83
2018-07-23T20:51:56.093Z,101169.93
2018-07-23T20:54:32.165Z,101172.73
2018-07-23T20:57:05.485Z,101173.30
2018-07-23T20:59:35.030Z,101178.54
2018-07-23T21:02:05.577Z,101179.97
2018-07-23T21:04:38.829Z,101163.31
2018-07-23T21:07:08.037Z,101184.73
2018-07-23T21:09:41.754Z,101185.05
2018-07-23T21:12:10.990Z,101190.30
2018-07-23T21:14:40.277Z,101192.27
2018-07-23T21:17:11.963Z,101189.56
2018-07-23T21:19:43.152Z,101189.05
2018-07-23T21:22:13.032Z,101191.81
2018-07-23T21:24:43.395Z,101184.73
2018-07-23T21:27:13.159Z,101189.67
2018-07-23T21:29:42.558Z,101187.80
2018-07-23T21:32:12.102Z,101179.30
2018-07-23T21:34:41.658Z,101186.69
2018-07-23T21:37:11.248Z,101189.70
2018-07-23T21:39:40.018Z,101184.52
2018-07-23T21:42:10.064Z,101196.81
2018-07-23T21:44:39.081Z,101193.25
2018-07-23T21:47:09.916Z,101183.41
2018-07-23T21:49:39.596Z,101189.95
2018-07-23T21:52:13.353Z,101193.25
2018-07-23T21:54:42.160Z,101180.94
2018-07-23T21:57:11.429Z,101189.36
2018-07-23T21:59:40.370Z,101186.84
2018-07-23T22:02:09.783Z,101185.92
2018-07-23T22:04:39.254Z,101189.08
2018-07-23T22:07:08.316Z,101190.02
2018-07-23T22:09:37.416Z,101194.83
2018-07-23T22:12:06.257Z,101198.31
2018-07-23T22:14:35.026Z,101199.64
2018-07-23T22:17:03.953Z,101201.83
2018-07-23T22:19:32.619Z,101206.50
2018-07-23T22:22:01.666Z,101199.67
2018-07-23T22:24:30.310Z,101198.23
2018-07-23T22:26:59.118Z,101201.69
2018-07-23T22:29:28.138Z,101201.64
2018-07-23T22:31:56.865Z,101212.26
2018-07-23T22:34:25.528Z,101206.23
2018-07-23T22:36:54.188Z,101208.95
2018-07-23T22:39:23.090Z,101211.19
2018-07-23T22:41:51.866Z,101205.73
2018-07-23T22:44:22.672Z,101212.55
2018-07-23T22:46:52.761Z,101209.81
2018-07-23T22:49:23.458Z,101209.77
2018-07-23T22:51:53.146Z,101207.26
2018-07-23T22:54:22.514Z,101211.05
2018-07-23T22:56:51.998Z,101213.45
2018-07-23T22:59:21.057Z,101209.81
2018-07-23T23:04:31.826Z,101220.13
2018-07-23T23:07:03.040Z,101223.92
2018-07-23T23:09:32.085Z,101218.44
2018-07-23T23:12:01.044Z,101216.52
2018-07-23T23:14:29.882Z,101218.67
2018-07-23T23:16:58.897Z,101219.98
2018-07-23T23:19:27.857Z,101220.52
2018-07-23T23:21:56.706Z,101224.91
2018-07-23T23:24:28.252Z,101224.06
2018-07-23T23:26:57.752Z,101223.20
2018-07-23T23:29:26.385Z,101222.61
2018-07-23T23:31:55.934Z,101228.55
2018-07-23T23:34:24.656Z,101223.59
2018-07-23T23:36:53.439Z,101222.50
2018-07-23T23:39:22.610Z,101220.31
2018-07-23T23:41:51.544Z,101220.31
2018-07-23T23:44:20.555Z,101218.38
2018-07-23T23:46:49.591Z,101212.34
2018-07-23T23:49:18.234Z,101214.23
2018-07-23T23:51:46.977Z,101211.39
2018-07-23T23:54:15.695Z,101212.98
2018-07-23T23:56:44.359Z,101206.37
2018-07-23T23:59:13.030Z,101207.42
